Time;durP1;ratioP1;P1;durP2;ratioP2;P2;SDS_P1;SDS_P2;PMS_P1;PMS_P2;Temp;Humidity;BMP_temperature;BMP_pressure;BME280_temperature;BME280_humidity;BME280_pressure;Samples;Min_cycle;Max_cycle;Signal;HPM_P1;HPM_P2
2023/06/20 00:01:18;;;;;;;;;34.00;32.00;;;;;18.81;100.00;99587.66;6282912;20;3609672;-46
2023/06/20 00:03:47;;;;;;;;;33.33;32.00;;;;;18.85;100.00;99580.03;6280448;20;3599261;-48
2023/06/20 00:06:14;;;;;;;;;36.00;32.00;;;;;18.79;100.00;99586.09;6315751;20;1898230;-49
2023/06/20 00:08:43;;;;;;;;;37.75;32.00;;;;;18.90;100.00;99594.03;6282139;20;3615871;-50
2023/06/20 00:11:12;;;;;;;;;37.00;31.00;;;;;18.68;100.00;99592.53;6310590;20;3601324;-48
2023/06/20 00:13:43;;;;;;;;;33.67;31.67;;;;;18.68;100.00;99594.41;6284390;20;3596150;-49
2023/06/20 00:16:11;;;;;;;;;42.00;34.00;;;;;18.74;100.00;99585.63;6281276;20;3584635;-46
2023/06/20 00:18:40;;;;;;;;;38.00;34.33;;;;;18.74;100.00;99581.06;6276705;20;3611715;-50
2023/06/20 00:21:09;;;;;;;;;36.67;32.67;;;;;18.83;100.00;99584.78;6310360;20;3616000;-49
2023/06/20 00:23:37;;;;;;;;;41.00;34.67;;;;;18.81;100.00;99584.06;6283945;20;3590911;-46
2023/06/20 00:26:06;;;;;;;;;34.67;31.33;;;;;18.80;100.00;99583.22;6280079;20;3600322;-46
2023/06/20 00:28:34;;;;;;;;;40.00;33.33;;;;;18.55;100.00;99590.16;6308101;20;3604600;-45
2023/06/20 00:31:04;;;;;;;;;38.33;34.33;;;;;18.45;100.00;99583.88;6278932;20;3597249;-49
2023/06/20 00:33:35;;;;;;;;;39.67;32.67;;;;;18.45;100.00;99581.16;6308979;20;3601773;-51
2023/06/20 00:36:04;;;;;;;;;38.33;34.00;;;;;18.31;100.00;99581.63;6281824;20;3591987;-49
2023/06/20 00:38:33;;;;;;;;;42.00;34.33;;;;;18.49;100.00;99585.31;6277331;20;2852778;-50
2023/06/20 00:41:01;;;;;;;;;38.33;31.67;;;;;18.27;100.00;99591.91;6317870;20;3610753;-45
2023/06/20 00:43:30;;;;;;;;;37.67;33.67;;;;;17.93;100.00;99588.81;6284822;20;2848456;-47
2023/06/20 00:45:59;;;;;;;;;39.67;34.00;;;;;17.85;100.00;99585.97;6320916;20;3571101;-47
2023/06/20 00:48:28;;;;;;;;;39.33;34.33;;;;;17.88;100.00;99586.56;6282007;20;2840974;-47
2023/06/20 00:50:57;;;;;;;;;41.67;35.00;;;;;17.81;100.00;99585.41;6320162;20;3593045;-49
2023/06/20 00:53:26;;;;;;;;;40.67;34.67;;;;;17.89;100.00;99587.41;6282728;20;3605566;-46
2023/06/20 00:55:55;;;;;;;;;37.33;32.67;;;;;17.85;100.00;99588.69;6319717;20;3594036;-45
2023/06/20 00:58:24;;;;;;;;;43.00;35.00;;;;;17.93;100.00;99588.81;6287266;20;3625314;-51
2023/06/20 01:00:52;;;;;;;;;35.67;31.33;;;;;17.90;100.00;99589.13;6318997;20;3607519;-45
2023/06/20 01:03:21;;;;;;;;;38.00;33.00;;;;;17.60;100.00;99588.22;6284846;20;3590870;-50
2023/06/20 01:06:20;;;;;;;;;38.00;33.67;;;;;17.49;100.00;99591.94;6317193;20;3587764;-46
2023/06/20 01:09:02;;;;;;;;;37.33;34.33;;;;;17.44;100.00;99593.38;6289045;20;3614852;-51
2023/06/20 01:12:15;;;;;;;;;34.67;31.67;;;;;17.51;100.00;99591.81;6281353;20;2852426;-49
2023/06/20 01:15:01;;;;;;;;;37.67;33.33;;;;;17.47;100.00;99599.34;6313517;20;3597113;-50
2023/06/20 01:17:55;;;;;;;;;35.33;32.33;;;;;17.32;100.00;99601.63;6282042;20;3595056;-50
2023/06/20 01:20:44;;;;;;;;;40.33;34.33;;;;;17.36;100.00;99606.78;6285295;20;3571092;-49
2023/06/20 01:23:29;;;;;;;;;35.67;33.00;;;;;17.34;100.00;99604.19;6280472;20;3604527;-47
2023/06/20 01:26:25;;;;;;;;;40.00;34.00;;;;;17.48;100.00;99614.66;6280418;20;3579523;-47
2023/06/20 01:29:17;;;;;;;;;42.67;36.00;;;;;17.41;100.00;99599.94;6281790;20;3582598;-45
2023/06/20 01:32:03;;;;;;;;;43.00;35.00;;;;;17.68;100.00;99604.66;6277414;20;3617996;-45
2023/06/20 01:34:38;;;;;;;;;37.33;33.00;;;;;17.64;100.00;99610.50;6312099;20;3602493;-44
2023/06/20 01:37:15;;;;;;;;;40.67;33.33;;;;;17.60;100.00;99599.09;6280792;20;2861787;-47
2023/06/20 01:39:51;;;;;;;;;37.67;33.33;;;;;17.55;100.00;99598.66;6311665;20;3585658;-45
2023/06/20 01:42:25;;;;;;;;;42.00;34.67;;;;;17.73;100.00;99610.53;6282968;20;3593033;-45
2023/06/20 01:44:58;;;;;;;;;39.00;33.00;;;;;17.77;100.00;99606.53;6284145;20;3603438;-45
2023/06/20 01:47:28;;;;;;;;;35.33;32.00;;;;;17.83;100.00;99598.84;6279315;20;3592995;-44
2023/06/20 01:49:59;;;;;;;;;33.33;31.00;;;;;17.65;100.00;99613.09;6280740;20;3594095;-48
2023/06/20 01:52:29;;;;;;;;;37.00;32.67;;;;;17.56;100.00;99608.50;6277333;20;3600300;-45
2023/06/20 01:55:04;;;;;;;;;37.00;33.67;;;;;17.57;100.00;99610.25;6277984;20;3602507;-46
2023/06/20 01:57:35;;;;;;;;;32.00;31.00;;;;;17.53;100.00;99608.78;6313254;20;3597132;-47
2023/06/20 02:00:08;;;;;;;;;36.33;32.00;;;;;17.41;100.00;99604.50;6273380;20;2858896;-46
2023/06/20 02:02:37;;;;;;;;;34.00;30.33;;;;;17.30;100.00;99598.19;6309815;20;3590919;-47
2023/06/20 02:05:08;;;;;;;;;40.00;33.33;;;;;17.24;100.00;99597.88;6279249;20;3589714;-45
2023/06/20 02:07:38;;;;;;;;;44.33;34.00;;;;;17.15;100.00;99591.44;6282134;20;3612806;-45
2023/06/20 02:10:07;;;;;;;;;36.33;32.00;;;;;17.02;100.00;99604.41;6309736;20;3597283;-44
2023/06/20 02:12:36;;;;;;;;;37.00;33.00;;;;;17.03;100.00;99596.09;6283252;20;1899278;-47
2023/06/20 02:15:06;;;;;;;;;38.67;34.33;;;;;17.16;100.00;99589.59;6281499;20;3588836;-46
2023/06/20 02:17:37;;;;;;;;;39.67;33.00;;;;;16.91;100.00;99582.81;6282691;20;2854562;-46
2023/06/20 02:20:07;;;;;;;;;34.00;32.00;;;;;16.81;100.00;99585.47;6313089;20;3599374;-46
2023/06/20 02:22:36;;;;;;;;;37.00;34.00;;;;;16.83;100.00;99589.78;6281343;20;3590085;-48
2023/06/20 02:25:09;;;;;;;;;32.00;31.00;;;;;16.78;100.00;99586.63;6280043;20;2856733;-46
2023/06/20 02:27:40;;;;;;;;;43.67;33.67;;;;;16.71;100.00;99585.41;6315394;20;3618008;-47
2023/06/20 02:30:11;;;;;;;;;43.33;35.00;;;;;16.52;100.00;99578.03;6278454;20;2849460;-45
2023/06/20 02:32:43;;;;;;;;;41.67;33.67;;;;;16.71;100.00;99589.97;6311049;20;3617006;-46
2023/06/20 02:35:13;;;;;;;;;41.67;32.33;;;;;16.42;100.00;99591.53;6280711;20;3610698;-46
2023/06/20 02:37:43;;;;;;;;;34.00;32.33;;;;;16.24;100.00;99594.03;6283062;20;3600287;-46
2023/06/20 02:40:12;;;;;;;;;38.33;33.00;;;;;16.50;100.00;99592.72;6277088;20;3607555;-46
2023/06/20 02:42:40;;;;;;;;;44.67;38.33;;;;;16.30;100.00;99597.16;6316748;20;3605495;-47
2023/06/20 02:45:12;;;;;;;;;39.50;33.50;;;;;16.39;100.00;99599.94;6283386;20;2841005;-48
2023/06/20 02:48:26;;;;;;;;;39.00;34.67;;;;;16.45;100.00;99602.09;6282732;20;2862899;-47
2023/06/20 02:51:16;;;;;;;;;35.33;32.00;;;;;16.40;100.00;99588.13;6310058;20;3591974;-45
2023/06/20 02:54:04;;;;;;;;;42.33;35.67;;;;;16.31;100.00;99586.19;6292634;20;3609660;-45
2023/06/20 02:56:37;;;;;;;;;45.67;36.67;;;;;16.32;100.00;99584.34;6313004;20;3589826;-47
2023/06/20 02:59:09;;;;;;;;;38.67;34.33;;;;;16.66;100.00;99595.78;6276752;20;2871249;-44
2023/06/20 03:01:39;;;;;;;;;41.67;35.00;;;;;16.61;100.00;99600.75;6311446;20;3611752;-44
2023/06/20 03:04:08;;;;;;;;;38.33;34.67;;;;;16.74;100.00;99600.53;6282591;20;3596091;-45
2023/06/20 03:06:38;;;;;;;;;38.67;32.67;;;;;16.85;100.00;99608.59;6280741;20;3610775;-45
2023/06/20 03:09:06;;;;;;;;;37.50;33.50;;;;;16.94;100.00;99606.94;6282437;20;3496149;-47
2023/06/20 03:11:35;;;;;;;;;38.00;33.00;;;;;16.91;100.00;99607.22;6315174;20;3606508;-45
2023/06/20 03:14:05;;;;;;;;;36.33;32.33;;;;;17.01;100.00;99605.38;6279562;20;3591015;-46
2023/06/20 03:16:34;;;;;;;;;36.00;32.00;;;;;17.03;100.00;99616.94;6280219;20;3604485;-46
2023/06/20 03:19:03;;;;;;;;;39.33;32.67;;;;;17.10;100.00;99618.13;6309530;20;2854481;-47
2023/06/20 03:21:32;;;;;;;;;36.00;33.00;;;;;17.06;100.00;99614.84;6314910;20;3597149;-45
2023/06/20 03:24:01;;;;;;;;;31.33;30.00;;;;;16.99;100.00;99626.38;6281160;20;2841976;-44
2023/06/20 03:26:29;;;;;;;;;38.00;34.00;;;;;17.03;100.00;99619.66;6315023;20;3606676;-47
2023/06/20 03:28:57;;;;;;;;;42.00;33.67;;;;;17.22;100.00;99619.75;6281638;20;3608042;-46
2023/06/20 03:31:26;;;;;;;;;39.67;34.67;;;;;17.14;100.00;99625.00;6277350;20;3602351;-44
2023/06/20 03:33:54;;;;;;;;;39.00;34.00;;;;;17.15;100.00;99624.00;6282491;20;3590885;-46
2023/06/20 03:36:23;;;;;;;;;34.00;31.00;;;;;17.25;100.00;99633.03;6280315;20;2854537;-49
2023/06/20 03:38:52;;;;;;;;;39.33;35.00;;;;;17.25;100.00;99633.03;6312394;20;3579522;-49
2023/06/20 03:41:20;;;;;;;;;38.33;33.33;;;;;17.32;100.00;99634.19;6283997;20;3602506;-44
2023/06/20 03:43:48;;;;;;;;;36.33;33.00;;;;;17.27;100.00;99633.75;6282587;20;3603505;-46
2023/06/20 03:46:17;;;;;;;;;36.00;32.00;;;;;17.47;100.00;99645.50;6279423;20;3590045;-48
2023/06/20 03:48:46;;;;;;;;;37.50;32.75;;;;;17.42;100.00;99649.63;6315572;20;3616078;-46
2023/06/20 03:51:15;;;;;;;;;39.00;35.00;;;;;17.41;100.00;99654.22;6313422;20;3588670;-48
2023/06/20 03:53:44;;;;;;;;;36.33;32.00;;;;;17.63;100.00;99660.41;6277744;20;3599213;-50
2023/06/20 03:56:12;;;;;;;;;33.67;32.00;;;;;17.66;100.00;99655.53;6312746;20;3595052;-45
2023/06/20 03:58:40;;;;;;;;;40.00;35.67;;;;;17.70;100.00;99658.84;6282333;20;3583628;-45
2023/06/20 04:01:08;;;;;;;;;33.67;32.00;;;;;17.86;100.00;99663.75;6284107;20;3601340;-49
2023/06/20 04:03:38;;;;;;;;;39.00;32.00;;;;;17.76;100.00;99661.84;6280825;20;3607650;-45
2023/06/20 04:06:06;;;;;;;;;40.33;35.00;;;;;17.63;100.00;99663.97;6313721;20;3603485;-46
2023/06/20 04:08:35;;;;;;;;;38.67;34.00;;;;;17.72;100.00;99668.56;6279324;20;2853588;-44
2023/06/20 04:11:04;;;;;;;;;40.00;35.00;;;;;17.63;100.00;99674.81;6315057;20;3597266;-49
2023/06/20 04:13:32;;;;;;;;;45.00;36.00;;;;;17.82;100.00;99676.75;6283008;20;3602356;-46
2023/06/20 04:16:00;;;;;;;;;41.00;33.33;;;;;17.73;100.00;99677.56;6284307;20;3617986;-46
2023/06/20 04:18:28;;;;;;;;;37.33;33.00;;;;;17.85;100.00;99672.88;6277497;20;3590969;-46
2023/06/20 04:21:02;;;;;;;;;36.00;32.33;;;;;18.04;100.00;99667.47;6283828;20;3606528;-44
2023/06/20 04:23:31;;;;;;;;;37.67;34.00;;;;;18.24;99.81;99668.31;6280858;20;3593223;-45
2023/06/20 04:25:59;;;;;;;;;31.67;28.67;;;;;18.65;96.28;99671.72;6313845;20;3588841;-45
2023/06/20 04:28:28;;;;;;;;;35.00;31.67;;;;;18.59;96.37;99680.47;6280994;20;3607560;-44
2023/06/20 04:30:56;;;;;;;;;33.33;30.67;;;;;18.74;96.00;99669.97;6284341;20;3592977;-45
2023/06/20 04:33:24;;;;;;;;;32.67;31.00;;;;;18.70;95.96;99665.84;6286568;20;3602372;-49
2023/06/20 04:35:55;;;;;;;;;35.67;32.33;;;;;19.04;94.48;99666.19;6279337;20;3593984;-46
2023/06/20 04:38:23;;;;;;;;;34.33;32.33;;;;;19.20;93.85;99682.72;6281731;20;3606490;-47
2023/06/20 04:40:54;;;;;;;;;29.67;29.67;;;;;19.29;94.10;99680.97;6281780;20;3585669;-49
2023/06/20 04:43:23;;;;;;;;;35.00;31.00;;;;;19.44;93.08;99684.91;6279195;20;3600307;-49
2023/06/20 04:45:51;;;;;;;;;36.33;31.00;;;;;19.65;91.50;99681.91;6311568;20;3594062;-48
2023/06/20 04:48:19;;;;;;;;;26.67;26.67;;;;;19.74;91.91;99683.75;6282443;20;3602497;-47
2023/06/20 04:50:48;;;;;;;;;32.67;31.00;;;;;20.13;89.94;99678.00;6282795;20;3590887;-46
2023/06/20 04:53:19;;;;;;;;;28.00;25.33;;;;;20.96;85.66;99674.94;6278094;20;3589876;-46
2023/06/20 04:55:48;;;;;;;;;30.33;27.67;;;;;20.47;85.88;99674.56;6311011;20;3602753;-45
2023/06/20 04:58:17;;;;;;;;;29.33;27.33;;;;;20.35;87.21;99678.53;6278652;20;3589871;-47
2023/06/20 05:00:46;;;;;;;;;30.50;26.50;;;;;20.56;87.49;99679.09;6279424;20;3601311;-45
2023/06/20 05:03:14;;;;;;;;;28.67;26.33;;;;;20.76;86.11;99682.47;6312574;20;3570047;-49
2023/06/20 05:05:42;;;;;;;;;32.00;30.00;;;;;21.03;85.48;99686.06;6280875;20;3594101;-46
2023/06/20 05:08:11;;;;;;;;;29.25;26.25;;;;;21.05;84.67;99689.47;6278906;20;3603481;-50
2023/06/20 05:11:08;;;;;;;;;25.33;25.00;;;;;21.26;83.93;99681.75;6310466;20;3597377;-46
2023/06/20 05:13:36;;;;;;;;;28.67;26.00;;;;;21.39;84.07;99681.31;6280197;20;3596106;-45
2023/06/20 05:16:04;;;;;;;;;26.00;25.67;;;;;21.45;82.87;99686.13;6282585;20;3591041;-44
2023/06/20 05:18:32;;;;;;;;;23.67;23.67;;;;;20.95;83.09;99686.00;6279821;20;3588902;-46
2023/06/20 05:21:01;;;;;;;;;26.00;26.00;;;;;21.59;83.78;99691.97;6281543;20;3591979;-45
2023/06/20 05:23:29;;;;;;;;;25.00;25.00;;;;;21.43;82.76;99681.84;6281788;20;3594042;-43
2023/06/20 05:25:58;;;;;;;;;26.33;26.33;;;;;21.43;83.59;99690.91;6281712;20;3587935;-46
2023/06/20 05:28:26;;;;;;;;;24.67;24.33;;;;;21.33;82.84;99683.81;6281909;20;3598241;-45
2023/06/20 05:30:54;;;;;;;;;25.33;25.33;;;;;21.45;81.83;99686.13;6287003;20;3588915;-47
2023/06/20 05:33:22;;;;;;;;;25.33;25.33;;;;;21.41;83.09;99681.16;6285404;20;3588838;-46
2023/06/20 05:35:51;;;;;;;;;23.33;22.00;;;;;21.62;82.25;99688.94;6289941;20;3572198;-44
2023/06/20 05:38:19;;;;;;;;;24.67;24.00;;;;;21.85;80.63;99692.75;6286555;20;3585703;-43
2023/06/20 05:40:47;;;;;;;;;25.67;25.00;;;;;21.86;80.37;99701.81;6289015;20;3594044;-44
2023/06/20 05:43:16;;;;;;;;;26.33;23.33;;;;;22.03;80.02;99710.91;6284114;20;3587881;-44
2023/06/20 05:45:44;;;;;;;;;22.67;22.67;;;;;22.00;77.96;99709.34;6285462;20;3585782;-45
2023/06/20 05:48:12;;;;;;;;;23.67;22.00;;;;;22.18;78.73;99716.56;6284802;20;3579425;-48
2023/06/20 05:50:41;;;;;;;;;29.00;28.00;;;;;22.33;77.68;99712.19;6286440;20;3605460;-44
2023/06/20 05:53:10;;;;;;;;;27.00;25.00;;;;;22.62;78.58;99713.53;6316494;20;3604623;-43
2023/06/20 05:55:40;;;;;;;;;26.00;23.33;;;;;22.55;78.00;99719.72;6318574;20;3594113;-43
2023/06/20 05:58:08;;;;;;;;;24.33;24.33;;;;;22.60;77.83;99723.81;6288316;20;3590983;-48
2023/06/20 06:00:36;;;;;;;;;25.33;23.33;;;;;22.73;76.79;99725.00;6285751;20;3583647;-45
2023/06/20 06:03:04;;;;;;;;;26.33;25.00;;;;;22.75;76.02;99719.38;6287392;20;3592052;-46
2023/06/20 06:05:33;;;;;;;;;25.00;25.00;;;;;23.10;76.04;99714.56;6289203;20;3588887;-44
2023/06/20 06:08:01;;;;;;;;;24.33;23.33;;;;;23.09;75.50;99723.78;6286883;20;3584652;-44
2023/06/20 06:10:29;;;;;;;;;23.00;21.67;;;;;23.16;75.46;99724.81;6287854;20;3578592;-45
2023/06/20 06:12:58;;;;;;;;;27.00;25.33;;;;;23.39;74.21;99728.50;6286480;20;3598304;-53
2023/06/20 06:15:26;;;;;;;;;22.33;22.33;;;;;22.94;75.52;99729.94;6288123;20;3585696;-48
2023/06/20 06:17:54;;;;;;;;;24.33;24.33;;;;;23.14;75.24;99729.59;6287025;20;3604489;-52
2023/06/20 06:20:23;;;;;;;;;23.67;22.33;;;;;23.35;75.13;99735.34;6285989;20;3589957;-52
2023/06/20 06:22:52;;;;;;;;;24.67;23.67;;;;;23.70;74.28;99732.31;6281999;20;3585674;-46
2023/06/20 06:25:21;;;;;;;;;27.00;25.67;;;;;23.86;73.09;99735.03;6284049;20;3588938;-47
2023/06/20 06:27:49;;;;;;;;;22.00;21.00;;;;;23.99;72.82;99728.97;6283666;20;3572261;-50
2023/06/20 06:30:20;;;;;;;;;24.00;23.00;;;;;24.26;70.58;99733.94;6287349;20;3584689;-49
2023/06/20 06:32:48;;;;;;;;;23.33;21.67;;;;;24.31;70.56;99738.88;6283953;20;3578454;-49
2023/06/20 06:35:17;;;;;;;;;21.33;21.33;;;;;24.65;70.27;99741.22;6283467;20;3581756;-49
2023/06/20 06:37:47;;;;;;;;;21.67;21.67;;;;;25.24;69.08;99742.44;6276764;20;3590082;-48
2023/06/20 06:40:15;;;;;;;;;22.67;21.67;;;;;25.23;67.13;99743.47;6281276;20;3582602;-49
2023/06/20 06:42:44;;;;;;;;;23.67;23.00;;;;;25.48;66.15;99742.13;6285765;20;3588801;-49
2023/06/20 06:45:12;;;;;;;;;20.67;19.33;;;;;25.55;67.56;99743.09;6282246;20;3565922;-47
2023/06/20 06:47:40;;;;;;;;;16.33;16.33;;;;;25.86;66.03;99744.81;6284362;20;3558716;-45
2023/06/20 06:50:09;;;;;;;;;20.67;19.67;;;;;26.23;61.84;99751.19;6283696;20;3568112;-48
2023/06/20 06:52:39;;;;;;;;;21.00;21.00;;;;;26.25;64.13;99754.56;6283982;20;3587774;-48
2023/06/20 06:55:08;;;;;;;;;21.33;21.33;;;;;26.48;59.73;99755.25;6284782;20;3573181;-45
2023/06/20 06:57:36;;;;;;;;;21.67;19.67;;;;;26.94;61.17;99756.78;6286293;20;3565889;-44
2023/06/20 07:00:11;;;;;;;;;26.00;25.00;;;;;26.79;63.73;99751.34;6283396;20;3601291;-44
2023/06/20 07:02:41;;;;;;;;;24.67;24.00;;;;;26.93;62.11;99753.16;6313498;20;3582585;-47
2023/06/20 07:05:11;;;;;;;;;20.00;20.00;;;;;27.13;61.62;99752.47;6316972;20;3570267;-53
2023/06/20 07:07:39;;;;;;;;;23.00;20.33;;;;;27.63;60.35;99756.03;6286584;20;3583666;-50
2023/06/20 07:10:09;;;;;;;;;17.67;17.67;;;;;27.55;58.11;99758.94;6280446;20;3573163;-49
2023/06/20 07:12:39;;;;;;;;;18.00;18.00;;;;;27.79;57.47;99765.88;6280994;20;3563908;-46
2023/06/20 07:15:07;;;;;;;;;21.67;20.00;;;;;27.63;56.34;99764.31;6285586;20;3574209;-44
2023/06/20 07:17:36;;;;;;;;;19.00;19.00;;;;;27.52;57.02;99762.13;6278471;20;3571095;-45
2023/06/20 07:20:08;;;;;;;;;23.67;18.67;;;;;27.85;57.80;99761.47;6281817;20;3569054;-45
2023/06/20 07:22:37;;;;;;;;;20.00;18.33;;;;;28.16;54.23;99763.72;6284472;20;3572166;-44
2023/06/20 07:25:08;;;;;;;;;19.29;18.00;;;;;27.92;54.93;99765.13;6300392;20;3566048;-46
2023/06/20 07:27:37;;;;;;;;;19.33;18.33;;;;;28.11;53.87;99761.59;6283367;20;3575352;-48
2023/06/20 07:30:06;;;;;;;;;16.00;16.00;;;;;28.57;54.36;99762.78;6281810;20;3560701;-47
2023/06/20 07:32:34;;;;;;;;;18.00;18.00;;;;;28.99;52.66;99769.00;6285627;20;3578391;-44
2023/06/20 07:35:02;;;;;;;;;20.00;18.67;;;;;29.03;53.23;99776.66;6286204;20;3571229;-46
2023/06/20 07:37:30;;;;;;;;;18.67;18.67;;;;;28.30;53.65;99773.75;6284194;20;3602795;-43
2023/06/20 07:39:59;;;;;;;;;18.00;18.00;;;;;28.92;54.23;99769.00;6281667;20;3565099;-46
2023/06/20 07:42:27;;;;;;;;;17.67;17.67;;;;;29.35;51.42;99768.59;6285409;20;3566956;-47
2023/06/20 07:44:55;;;;;;;;;21.00;19.33;;;;;29.47;52.59;99763.25;6285843;20;3560692;-49
2023/06/20 07:47:23;;;;;;;;;21.33;21.00;;;;;28.70;53.31;99760.06;6283498;20;3579542;-46
2023/06/20 07:49:51;;;;;;;;;17.67;16.33;;;;;29.30;52.46;99772.00;6281492;20;3563840;-49
2023/06/20 07:52:20;;;;;;;;;17.00;16.33;;;;;29.11;52.08;99770.09;6280770;20;3567025;-48
2023/06/20 07:54:48;;;;;;;;;17.67;16.33;;;;;29.62;50.96;99774.94;6285659;20;3551308;-48
2023/06/20 07:57:16;;;;;;;;;20.33;18.67;;;;;29.49;50.37;99775.81;6283392;20;3554425;-46
2023/06/20 07:59:44;;;;;;;;;18.67;17.33;;;;;29.57;51.31;99776.63;6281421;20;3575347;-44
2023/06/20 08:02:12;;;;;;;;;13.67;12.00;;;;;29.46;49.48;99775.38;6283117;20;3534660;-49
2023/06/20 08:04:41;;;;;;;;;16.67;15.67;;;;;29.24;50.67;99783.06;6312842;20;3562821;-46
2023/06/20 08:07:10;;;;;;;;;20.67;18.67;;;;;28.94;50.82;99783.47;6311674;20;3577391;-46
2023/06/20 08:09:38;;;;;;;;;17.33;16.67;;;;;29.54;49.36;99787.09;6313780;20;3564940;-48
2023/06/20 08:12:09;;;;;;;;;17.00;17.00;;;;;30.15;46.90;99788.63;6280842;20;3552368;-49
2023/06/20 08:14:37;;;;;;;;;16.33;15.00;;;;;29.80;48.54;99792.78;6281713;20;3553388;-49
2023/06/20 08:17:05;;;;;;;;;13.67;12.33;;;;;29.74;48.24;99789.81;6317301;20;3534672;-47
2023/06/20 08:19:33;;;;;;;;;18.33;18.00;;;;;29.40;47.00;99784.56;6308216;20;3575254;-44
2023/06/20 08:22:02;;;;;;;;;17.67;17.00;;;;;29.83;47.93;99798.72;6278767;20;3566063;-49
2023/06/20 08:24:30;;;;;;;;;16.50;16.50;;;;;29.47;47.41;99790.94;6277908;20;2833717;-49
2023/06/20 08:26:58;;;;;;;;;18.00;15.00;;;;;29.46;47.46;99790.06;6279168;20;3548192;-49
2023/06/20 08:29:26;;;;;;;;;19.50;19.50;;;;;29.74;46.32;99794.53;6276909;20;2823184;-49
2023/06/20 08:31:54;;;;;;;;;17.00;16.33;;;;;29.86;47.08;99794.69;6279408;20;3554450;-45
2023/06/20 08:34:23;;;;;;;;;17.67;16.33;;;;;30.76;45.29;99792.78;6276581;20;3558603;-49
2023/06/20 08:36:53;;;;;;;;;15.67;15.00;;;;;29.77;44.66;99787.69;6282424;20;3547189;-48
2023/06/20 08:39:21;;;;;;;;;12.00;12.00;;;;;30.15;45.00;99790.56;6276604;20;2801380;-46
2023/06/20 08:41:51;;;;;;;;;17.33;15.67;;;;;29.30;43.48;99790.50;6280974;20;3560825;-45
2023/06/20 08:44:38;;;;;;;;;17.50;17.00;;;;;29.93;44.44;99798.28;6268069;20;2835728;-46
2023/06/20 08:47:25;;;;;;;;;16.00;16.00;;;;;29.84;44.29;99800.47;6282797;20;3554524;-48
2023/06/20 08:49:53;;;;;;;;;14.67;14.67;;;;;29.80;45.32;99788.09;6278123;20;3537766;-47
2023/06/20 08:52:29;;;;;;;;;14.00;14.00;;;;;30.12;42.64;99785.44;6277527;20;3539930;-47
2023/06/20 08:55:01;;;;;;;;;17.67;16.00;;;;;30.78;44.21;99801.75;6310032;20;3562776;-46
2023/06/20 08:57:30;;;;;;;;;16.33;15.67;;;;;30.57;42.27;99788.22;6278830;20;3557582;-46
2023/06/20 09:00:00;;;;;;;;;18.00;17.00;;;;;30.06;44.55;99789.09;6309154;20;2841990;-44
2023/06/20 09:02:28;;;;;;;;;16.00;15.00;;;;;30.94;42.85;99788.41;6286213;20;2843036;-51
2023/06/20 09:05:02;;;;;;;;;13.67;13.67;;;;;30.83;43.27;99788.09;6283182;20;3534731;-48
2023/06/20 09:07:36;;;;;;;;;13.33;13.33;;;;;30.78;42.87;99790.66;6282994;20;3533647;-52
2023/06/20 09:10:06;;;;;;;;;17.33;16.33;;;;;30.79;42.37;99791.50;6319341;20;3564842;-48
2023/06/20 09:12:58;;;;;;;;;13.50;13.50;;;;;30.20;42.18;99782.41;6285574;20;2808726;-49
2023/06/20 09:15:27;;;;;;;;;16.67;15.67;;;;;30.90;41.50;99782.47;6284924;20;3556528;-50
2023/06/20 09:18:00;;;;;;;;;15.00;13.50;;;;;30.44;40.53;99777.19;6283006;20;2812851;-49
2023/06/20 09:20:31;;;;;;;;;20.33;17.67;;;;;30.81;40.27;99779.16;6283184;20;3572285;-47
2023/06/20 09:23:00;;;;;;;;;15.00;15.00;;;;;30.86;40.26;99781.25;6313057;20;2811884;-48
2023/06/20 09:25:30;;;;;;;;;16.33;16.33;;;;;31.04;39.81;99778.53;6319369;20;3556525;-49
2023/06/20 09:27:58;;;;;;;;;14.67;14.67;;;;;31.16;38.55;99781.41;6287950;20;3541938;-50
2023/06/20 09:30:30;;;;;;;;;13.67;13.67;;;;;31.43;37.30;99782.03;6284697;20;3533061;-45
2023/06/20 09:33:06;;;;;;;;;15.57;15.29;;;;;31.36;39.35;99777.59;6337215;20;3538953;-53
2023/06/20 09:35:35;;;;;;;;;17.00;15.00;;;;;31.73;39.24;99777.69;6313865;20;2817981;-49
2023/06/20 09:38:05;;;;;;;;;16.00;15.67;;;;;31.11;39.00;99778.47;6316816;20;3559650;-45
2023/06/20 09:40:46;;;;;;;;;15.00;15.00;;;;;31.37;40.86;99782.09;6279532;20;2808626;-45
2023/06/20 09:43:15;;;;;;;;;16.33;15.67;;;;;31.77;37.82;99785.31;6282044;20;3585722;-48
2023/06/20 09:45:43;;;;;;;;;18.33;17.00;;;;;31.59;40.50;99771.44;6319468;20;3564879;-46
2023/06/20 09:48:13;;;;;;;;;14.33;13.00;;;;;31.34;39.76;99777.84;6287938;20;3534659;-46
2023/06/20 09:50:45;;;;;;;;;13.50;13.50;;;;;31.51;38.71;99778.13;6317238;20;2801350;-48
2023/06/20 09:53:27;;;;;;;;;18.67;16.33;;;;;31.08;39.45;99773.38;6282710;20;2835712;-47
2023/06/20 09:55:57;;;;;;;;;15.33;13.67;;;;;31.86;37.17;99770.06;6304319;20;3541956;-47
2023/06/20 09:58:28;;;;;;;;;12.67;12.67;;;;;31.89;38.99;99780.72;6287088;20;3533697;-51
2023/06/20 10:00:58;;;;;;;;;17.00;16.67;;;;;31.20;39.15;99779.91;6316612;20;3566319;-48
2023/06/20 10:03:27;;;;;;;;;13.67;13.67;;;;;31.41;39.96;99780.56;6288943;20;3541957;-47
2023/06/20 10:05:58;;;;;;;;;16.67;16.67;;;;;31.48;38.23;99778.59;6313489;20;3563849;-46
2023/06/20 10:08:26;;;;;;;;;15.50;15.50;;;;;31.67;39.76;99771.97;6282606;20;2820083;-46
2023/06/20 10:10:55;;;;;;;;;15.00;13.67;;;;;31.85;38.44;99778.63;6282182;20;3535771;-45
2023/06/20 10:13:25;;;;;;;;;12.00;12.00;;;;;31.06;38.50;99776.38;6313820;20;2810833;-45
2023/06/20 10:15:54;;;;;;;;;19.00;19.00;;;;;30.78;38.60;99778.69;6276007;20;2826411;-50
2023/06/20 10:18:31;;;;;;;;;18.67;16.67;;;;;31.50;38.26;99782.00;6282182;20;3557693;-46
2023/06/20 10:21:03;;;;;;;;;20.33;18.00;;;;;31.87;38.29;99782.00;6287054;20;3575318;-47
2023/06/20 10:23:33;;;;;;;;;18.33;17.67;;;;;31.76;36.93;99780.84;6285473;20;3566975;-49
2023/06/20 10:26:05;;;;;;;;;15.67;15.67;;;;;31.57;36.78;99780.00;6284228;20;3552514;-51
2023/06/20 10:28:39;;;;;;;;;16.33;15.00;;;;;30.94;37.71;99780.09;6311160;20;3554462;-44
2023/06/20 10:31:07;;;;;;;;;16.33;16.33;;;;;31.28;37.95;99776.84;6288064;20;3569037;-49
2023/06/20 10:33:39;;;;;;;;;16.00;15.00;;;;;31.55;39.44;99772.97;6286513;20;3554443;-50
2023/06/20 10:36:12;;;;;;;;;17.00;17.00;;;;;31.99;36.72;99771.00;6282015;20;3565014;-51
2023/06/20 10:39:04;;;;;;;;;16.67;16.67;;;;;31.19;39.26;99767.09;6280408;20;3558629;-46
2023/06/20 10:41:33;;;;;;;;;16.33;16.33;;;;;30.82;38.00;99766.13;6284868;20;3571181;-48
2023/06/20 10:44:02;;;;;;;;;15.67;15.67;;;;;31.48;39.34;99767.50;6281124;20;2819073;-49
2023/06/20 10:46:36;;;;;;;;;16.00;16.00;;;;;32.18;37.57;99760.69;6316304;20;3569019;-45
2023/06/20 10:49:07;;;;;;;;;18.00;18.00;;;;;32.24;37.53;99765.34;6284499;20;2840124;-46
2023/06/20 10:51:51;;;;;;;;;16.33;16.33;;;;;32.42;36.44;99768.09;6310574;20;2829699;-47
2023/06/20 10:54:21;;;;;;;;;18.00;18.00;;;;;31.58;38.87;99770.59;6315070;20;3574254;-47
2023/06/20 10:56:50;;;;;;;;;16.67;15.67;;;;;31.57;38.54;99757.78;6283958;20;2827367;-45
2023/06/20 10:59:20;;;;;;;;;14.00;14.00;;;;;31.70;36.02;99760.44;6313311;20;2809655;-51
2023/06/20 11:01:48;;;;;;;;;19.00;17.33;;;;;31.49;37.43;99763.63;6312698;20;3568525;-49
2023/06/20 11:04:18;;;;;;;;;18.33;18.33;;;;;31.85;37.36;99767.50;6314921;20;3571220;-50
2023/06/20 11:06:47;;;;;;;;;16.33;15.67;;;;;31.30;37.87;99753.56;6285141;20;3551297;-50
2023/06/20 11:09:21;;;;;;;;;18.00;16.50;;;;;31.55;38.06;99750.78;6283366;20;2830538;-48
2023/06/20 11:11:51;;;;;;;;;17.33;16.33;;;;;31.72;37.02;99757.41;6281690;20;2822177;-48
2023/06/20 11:14:23;;;;;;;;;15.00;15.00;;;;;31.49;37.18;99755.28;6311682;20;2811867;-49
2023/06/20 11:16:54;;;;;;;;;13.67;13.67;;;;;30.89;35.93;99758.59;6316365;20;3527800;-52